Time;durP1;ratioP1;P1;durP2;ratioP2;P2;SDS_P1;SDS_P2;PMS_P1;PMS_P2;Temp;Humidity;BMP_temperature;BMP_pressure;BME280_temperature;BME280_humidity;BME280_pressure;Samples;Min_cycle;Max_cycle;Signal;HPM_P1;HPM_P2
2022/06/02 00:01:59;;;;;;;3.60;3.30;;;;;;;;;;4992596;28;20196;-49
2022/06/02 00:04:54;;;;;;;3.50;3.20;;;;;;;;;;5023939;28;20629;-49
2022/06/02 00:07:46;;;;;;;3.57;3.27;;;;;;;;;;4991031;28;20217;-50
2022/06/02 00:10:19;;;;;;;3.60;3.30;;;;;;;;;;4985758;28;20711;-49
2022/06/02 00:12:48;;;;;;;3.20;3.00;;;;;;;;;;4993883;28;20296;-48
2022/06/02 00:15:20;;;;;;;3.40;3.10;;;;;;;;;;4985348;28;20285;-50
2022/06/02 00:18:09;;;;;;;3.80;3.50;;;;;;;;;;5004040;28;20190;-50
2022/06/02 00:20:42;;;;;;;3.50;3.20;;;;;;;;;;4956580;28;20194;-49
2022/06/02 00:23:17;;;;;;;3.57;3.27;;;;;;;;;;5005043;28;20187;-49
2022/06/02 00:25:53;;;;;;;3.43;3.13;;;;;;;;;;4987106;28;20620;-50
2022/06/02 00:28:27;;;;;;;3.70;3.30;;;;;;;;;;4988723;28;20194;-50
2022/06/02 00:30:54;;;;;;;3.73;3.43;;;;;;;;;;5004254;28;20237;-49
2022/06/02 00:33:36;;;;;;;3.70;3.40;;;;;;;;;;5005647;28;20182;-50
2022/06/02 00:36:09;;;;;;;4.00;3.60;;;;;;;;;;4987196;28;20222;-49
2022/06/02 00:38:38;;;;;;;3.97;3.60;;;;;;;;;;5006918;28;20186;-50
2022/06/02 00:41:24;;;;;;;3.93;3.53;;;;;;;;;;5010841;28;20611;-50
2022/06/02 00:43:50;;;;;;;3.57;3.37;;;;;;;;;;5008962;28;20606;-50
2022/06/02 00:46:23;;;;;;;4.30;4.00;;;;;;;;;;4991121;28;20574;-50
2022/06/02 00:49:07;;;;;;;3.70;3.40;;;;;;;;;;4993438;28;20613;-50
2022/06/02 00:51:36;;;;;;;4.20;3.80;;;;;;;;;;5006156;28;20178;-49
2022/06/02 01:00:13;;;;;;;4.30;3.93;;;;;;;;;;4995553;28;20197;-50
2022/06/02 01:02:48;;;;;;;4.30;4.00;;;;;;;;;;5007362;28;20193;-49
2022/06/02 01:05:15;;;;;;;4.00;3.70;;;;;;;;;;5005547;28;20218;-50
2022/06/02 01:07:46;;;;;;;3.97;3.57;;;;;;;;;;4991320;28;20218;-51
2022/06/02 01:10:19;;;;;;;4.23;3.83;;;;;;;;;;5008087;28;20202;-49
2022/06/02 01:12:48;;;;;;;4.00;3.70;;;;;;;;;;5020437;28;20225;-50
2022/06/02 01:15:14;;;;;;;3.80;3.50;;;;;;;;;;5026257;28;20209;-50
2022/06/02 01:17:40;;;;;;;4.57;4.17;;;;;;;;;;5023549;28;20244;-49
2022/06/02 01:20:06;;;;;;;4.33;3.97;;;;;;;;;;5027517;28;20281;-49
2022/06/02 01:22:35;;;;;;;4.77;3.57;;;;;;;;;;5029368;28;20248;-50
2022/06/02 01:25:20;;;;;;;4.10;3.80;;;;;;;;;;5025070;28;20659;-49
2022/06/02 01:27:55;;;;;;;4.00;3.70;;;;;;;;;;5025564;28;20201;-49
2022/06/02 01:30:27;;;;;;;6.07;5.67;;;;;;;;;;5007268;28;20185;-48
2022/06/02 01:33:11;;;;;;;4.10;3.80;;;;;;;;;;5004477;28;20193;-50
2022/06/02 01:35:40;;;;;;;4.40;4.00;;;;;;;;;;5010699;28;20215;-49
2022/06/02 01:38:07;;;;;;;4.27;3.97;;;;;;;;;;5026582;28;20285;-50
2022/06/02 01:40:43;;;;;;;4.47;4.10;;;;;;;;;;5008520;28;20266;-49
2022/06/02 01:43:14;;;;;;;4.53;4.23;;;;;;;;;;5025323;28;20607;-50
2022/06/02 01:45:59;;;;;;;3.97;3.67;;;;;;;;;;5025083;28;20237;-50
2022/06/02 01:48:30;;;;;;;4.27;3.97;;;;;;;;;;5025332;28;20174;-49
2022/06/02 01:51:03;;;;;;;5.07;4.00;;;;;;;;;;5023742;28;20817;-49
2022/06/02 01:53:42;;;;;;;4.27;3.97;;;;;;;;;;5027004;28;20200;-49
2022/06/02 01:56:11;;;;;;;5.80;4.47;;;;;;;;;;5017035;28;20200;-49
2022/06/02 01:58:44;;;;;;;4.90;4.40;;;;;;;;;;5024715;28;20273;-49
2022/06/02 02:01:16;;;;;;;4.63;4.10;;;;;;;;;;5022751;28;20220;-49
2022/06/02 02:04:02;;;;;;;4.63;4.23;;;;;;;;;;5023218;28;20186;-49
2022/06/02 02:06:33;;;;;;;3.90;3.60;;;;;;;;;;5021387;28;20210;-49
2022/06/02 02:09:05;;;;;;;4.37;3.97;;;;;;;;;;5007238;28;20292;-49
2022/06/02 02:11:40;;;;;;;3.93;3.63;;;;;;;;;;5024081;28;20298;-49
2022/06/02 02:14:26;;;;;;;4.73;4.33;;;;;;;;;;5026575;28;20620;-50
2022/06/02 02:17:02;;;;;;;3.80;3.50;;;;;;;;;;4987754;28;20213;-49
2022/06/02 02:19:46;;;;;;;3.90;3.60;;;;;;;;;;5025796;28;20186;-49
2022/06/02 02:22:16;;;;;;;4.73;4.33;;;;;;;;;;5026804;28;20185;-49
2022/06/02 02:25:06;;;;;;;4.40;4.00;;;;;;;;;;5023963;28;20254;-49
2022/06/02 02:28:04;;;;;;;4.67;4.27;;;;;;;;;;5025444;28;20267;-49
2022/06/02 02:30:51;;;;;;;4.77;4.37;;;;;;;;;;5021002;28;20170;-49
2022/06/02 02:33:36;;;;;;;4.83;4.43;;;;;;;;;;5010150;28;20170;-49
2022/06/02 02:36:02;;;;;;;4.53;4.17;;;;;;;;;;5009512;28;20189;-48
2022/06/02 02:38:39;;;;;;;4.53;4.13;;;;;;;;;;5025841;28;20585;-49
2022/06/02 02:41:07;;;;;;;4.50;4.10;;;;;;;;;;5025513;28;20213;-49
2022/06/02 02:43:42;;;;;;;4.67;4.27;;;;;;;;;;5009088;28;20525;-48
2022/06/02 02:46:15;;;;;;;4.93;4.47;;;;;;;;;;5007911;28;20209;-50
2022/06/02 02:48:44;;;;;;;4.77;4.37;;;;;;;;;;5025149;28;20225;-49
2022/06/02 02:51:23;;;;;;;6.40;6.00;;;;;;;;;;5023443;28;20194;-50
2022/06/02 02:54:01;;;;;;;4.87;4.37;;;;;;;;;;5027065;28;20174;-49
2022/06/02 02:56:35;;;;;;;5.30;4.30;;;;;;;;;;5014399;28;20273;-49
2022/06/02 02:59:13;;;;;;;4.50;4.17;;;;;;;;;;5011960;28;20544;-50
2022/06/02 03:01:43;;;;;;;5.70;5.10;;;;;;;;;;5009400;28;20681;-48
2022/06/02 03:04:09;;;;;;;5.03;4.63;;;;;;;;;;5022652;28;20286;-49
2022/06/02 03:06:41;;;;;;;4.77;4.37;;;;;;;;;;5025858;28;20205;-49
2022/06/02 03:09:13;;;;;;;4.87;4.20;;;;;;;;;;5009312;28;20987;-48
2022/06/02 03:11:39;;;;;;;4.43;4.13;;;;;;;;;;5026580;28;20225;-49
2022/06/02 03:14:28;;;;;;;4.80;4.40;;;;;;;;;;5024992;28;20174;-49
2022/06/02 03:17:05;;;;;;;8.33;7.83;;;;;;;;;;5014610;28;20194;-48
2022/06/02 03:19:42;;;;;;;4.43;4.10;;;;;;;;;;5004975;28;20246;-48
2022/06/02 03:22:13;;;;;;;4.97;4.13;;;;;;;;;;5016648;28;20181;-48
2022/06/02 03:24:56;;;;;;;4.73;4.33;;;;;;;;;;5026069;28;20189;-48
2022/06/02 03:27:45;;;;;;;5.13;3.90;;;;;;;;;;5011964;28;20252;-48
2022/06/02 03:30:25;;;;;;;4.07;3.73;;;;;;;;;;5020027;28;20217;-49
2022/06/02 03:33:00;;;;;;;4.80;4.40;;;;;;;;;;5026809;28;20243;-48
2022/06/02 03:35:49;;;;;;;4.60;4.20;;;;;;;;;;5024816;28;20181;-48
2022/06/02 03:38:19;;;;;;;4.33;3.93;;;;;;;;;;5009242;28;20250;-48
2022/06/02 03:40:57;;;;;;;4.70;4.30;;;;;;;;;;5015987;28;20202;-48
2022/06/02 03:43:43;;;;;;;4.03;3.70;;;;;;;;;;5010443;28;20213;-48
2022/06/02 03:46:22;;;;;;;4.97;4.37;;;;;;;;;;5024427;28;20567;-48
2022/06/02 03:48:55;;;;;;;4.73;4.33;;;;;;;;;;5025915;28;20434;-48
2022/06/02 03:51:21;;;;;;;4.80;4.40;;;;;;;;;;5024729;28;20190;-47
2022/06/02 03:54:06;;;;;;;4.60;4.20;;;;;;;;;;5026845;28;20185;-48
2022/06/02 03:56:44;;;;;;;5.30;4.50;;;;;;;;;;5021913;28;20186;-47
2022/06/02 03:59:10;;;;;;;4.50;4.10;;;;;;;;;;5025508;28;20174;-48
2022/06/02 04:01:37;;;;;;;4.83;4.37;;;;;;;;;;5022969;28;20213;-48
2022/06/02 04:04:18;;;;;;;5.13;4.73;;;;;;;;;;5024171;28;20189;-47
2022/06/02 04:06:51;;;;;;;3.83;3.53;;;;;;;;;;5008835;28;20205;-48
2022/06/02 04:09:43;;;;;;;6.20;5.70;;;;;;;;;;5004448;28;20201;-48
2022/06/02 04:15:17;;;;;;;4.37;3.97;;;;;;;;;;5024915;28;20682;-47
2022/06/02 04:17:58;;;;;;;4.40;4.00;;;;;;;;;;5015126;28;20189;-48
2022/06/02 04:20:39;;;;;;;4.00;3.70;;;;;;;;;;5018149;28;20277;-48
2022/06/02 04:23:24;;;;;;;4.43;4.13;;;;;;;;;;5011488;28;20170;-48
2022/06/02 04:26:22;;;;;;;4.97;4.57;;;;;;;;;;5009322;28;20594;-48
2022/06/02 04:29:03;;;;;;;4.63;4.17;;;;;;;;;;4983151;28;20542;-48
2022/06/02 04:31:29;;;;;;;4.80;4.40;;;;;;;;;;5023992;28;20255;-49
2022/06/02 04:33:59;;;;;;;4.60;4.20;;;;;;;;;;5011464;28;20178;-48
2022/06/02 04:36:25;;;;;;;4.90;4.33;;;;;;;;;;5025643;28;20224;-47
2022/06/02 04:39:18;;;;;;;4.07;3.77;;;;;;;;;;5010275;28;20189;-48
2022/06/02 04:41:47;;;;;;;4.80;4.30;;;;;;;;;;4990840;28;20721;-47
2022/06/02 04:44:36;;;;;;;3.90;3.60;;;;;;;;;;5023668;28;20659;-48
2022/06/02 04:47:23;;;;;;;4.43;4.03;;;;;;;;;;4997119;28;20339;-50
2022/06/02 04:50:07;;;;;;;4.93;4.53;;;;;;;;;;5017492;28;20204;-49
2022/06/02 04:52:53;;;;;;;5.77;5.23;;;;;;;;;;5031583;28;20302;-50
2022/06/02 04:55:23;;;;;;;4.60;4.20;;;;;;;;;;5001477;28;20197;-51
2022/06/02 04:58:18;;;;;;;4.80;4.33;;;;;;;;;;5025659;28;20221;-51
2022/06/02 05:00:52;;;;;;;5.40;4.90;;;;;;;;;;4997039;28;20194;-51
2022/06/02 05:03:24;;;;;;;4.33;3.93;;;;;;;;;;5005923;28;20280;-50
2022/06/02 05:06:09;;;;;;;4.20;3.90;;;;;;;;;;5017235;28;20751;-51
2022/06/02 05:08:41;;;;;;;3.90;3.60;;;;;;;;;;5026142;28;20178;-51
2022/06/02 05:11:13;;;;;;;5.53;4.97;;;;;;;;;;4959477;28;1333061;-50
2022/06/02 05:13:52;;;;;;;4.70;4.30;;;;;;;;;;5020824;28;20530;-51
2022/06/02 05:16:26;;;;;;;4.80;4.40;;;;;;;;;;5021903;28;20228;-50
2022/06/02 05:19:08;;;;;;;5.77;5.27;;;;;;;;;;5030021;28;20679;-50
2022/06/02 05:21:46;;;;;;;4.60;4.20;;;;;;;;;;5018061;28;20197;-51
2022/06/02 05:24:51;;;;;;;4.80;4.50;;;;;;;;;;5028118;28;20276;-50
2022/06/02 05:27:33;;;;;;;4.53;4.13;;;;;;;;;;4962373;28;20223;-50
2022/06/02 05:30:13;;;;;;;4.87;4.47;;;;;;;;;;4953763;28;20623;-50
2022/06/02 05:32:58;;;;;;;4.43;4.13;;;;;;;;;;4996755;28;20804;-50
2022/06/02 05:35:33;;;;;;;5.10;4.63;;;;;;;;;;5028100;28;20173;-50
2022/06/02 05:38:06;;;;;;;4.93;4.53;;;;;;;;;;5018393;28;20201;-50
2022/06/02 05:40:32;;;;;;;5.07;4.67;;;;;;;;;;5017324;28;20289;-49
2022/06/02 05:43:19;;;;;;;4.83;4.43;;;;;;;;;;5017085;28;21730;-50
2022/06/02 05:45:51;;;;;;;4.53;4.13;;;;;;;;;;5027170;28;20215;-50
2022/06/02 05:48:36;;;;;;;5.77;5.27;;;;;;;;;;5027057;28;20950;-50
2022/06/02 05:51:05;;;;;;;5.50;5.00;;;;;;;;;;5024721;28;20366;-50
2022/06/02 05:53:42;;;;;;;5.73;4.97;;;;;;;;;;5028741;28;20174;-49
2022/06/02 05:56:14;;;;;;;5.97;5.47;;;;;;;;;;4995484;28;20247;-49
2022/06/02 05:58:59;;;;;;;5.80;5.20;;;;;;;;;;5007932;28;20201;-50
2022/06/02 06:01:28;;;;;;;6.80;6.20;;;;;;;;;;5026033;28;20186;-50
2022/06/02 06:04:09;;;;;;;14.63;5.53;;;;;;;;;;5012385;28;20232;-49
2022/06/02 06:06:38;;;;;;;6.87;6.17;;;;;;;;;;5026873;28;20236;-49
2022/06/02 06:09:15;;;;;;;5.90;5.40;;;;;;;;;;5028460;28;20535;-50
2022/06/02 06:12:01;;;;;;;6.83;6.23;;;;;;;;;;5027613;28;20657;-48
2022/06/02 06:14:41;;;;;;;6.87;6.27;;;;;;;;;;4966583;28;20203;-49
2022/06/02 06:17:19;;;;;;;7.03;5.83;;;;;;;;;;4993423;28;20181;-49
2022/06/02 06:20:09;;;;;;;6.60;6.00;;;;;;;;;;5019071;28;20536;-49
2022/06/02 06:22:38;;;;;;;6.50;5.90;;;;;;;;;;5013197;28;20217;-49
2022/06/02 06:25:04;;;;;;;5.93;5.37;;;;;;;;;;5024422;28;20189;-49
2022/06/02 06:27:39;;;;;;;6.93;6.13;;;;;;;;;;5015142;28;20202;-49
2022/06/02 06:30:38;;;;;;;6.90;6.30;;;;;;;;;;5019078;28;20174;-49
2022/06/02 06:33:10;;;;;;;7.40;6.80;;;;;;;;;;4975921;28;20212;-49
2022/06/02 06:35:47;;;;;;;7.10;6.50;;;;;;;;;;5006084;28;20208;-49
2022/06/02 06:38:32;;;;;;;7.40;6.70;;;;;;;;;;4996794;28;20607;-49
2022/06/02 06:41:05;;;;;;;6.63;6.03;;;;;;;;;;5018313;28;20209;-48
2022/06/02 06:43:43;;;;;;;7.03;6.33;;;;;;;;;;5039792;28;20303;-49
2022/06/02 06:46:19;;;;;;;7.40;6.23;;;;;;;;;;5020312;28;20343;-50
2022/06/02 06:49:00;;;;;;;7.60;6.90;;;;;;;;;;5003682;28;20287;-49
2022/06/02 06:51:32;;;;;;;6.93;6.33;;;;;;;;;;5013122;28;20220;-48
2022/06/02 06:53:58;;;;;;;7.40;6.70;;;;;;;;;;5029043;28;20579;-49
2022/06/02 06:56:27;;;;;;;8.13;6.53;;;;;;;;;;5021557;28;20190;-48
2022/06/02 06:58:53;;;;;;;7.43;6.73;;;;;;;;;;5020748;28;20182;-48
2022/06/02 07:01:28;;;;;;;8.00;7.20;;;;;;;;;;5018624;28;20186;-49
2022/06/02 07:04:16;;;;;;;8.17;7.37;;;;;;;;;;5026650;28;20359;-49
2022/06/02 07:06:53;;;;;;;11.70;8.20;;;;;;;;;;5001357;28;20644;-48
2022/06/02 07:09:19;;;;;;;9.00;8.17;;;;;;;;;;5022262;28;20217;-48
2022/06/02 07:14:44;;;;;;;9.07;8.17;;;;;;;;;;5018358;28;20240;-49
2022/06/02 07:17:20;;;;;;;9.60;8.70;;;;;;;;;;5009133;28;20193;-49
2022/06/02 07:19:49;;;;;;;7.73;6.97;;;;;;;;;;5006025;28;20644;-50
2022/06/02 07:22:25;;;;;;;9.63;8.73;;;;;;;;;;5025675;28;20275;-49
2022/06/02 07:25:06;;;;;;;9.43;8.53;;;;;;;;;;5022061;28;20178;-49
2022/06/02 07:27:51;;;;;;;9.93;8.93;;;;;;;;;;5006935;28;20224;-49
2022/06/02 07:30:26;;;;;;;9.50;7.97;;;;;;;;;;5022437;28;20189;-49
2022/06/02 07:33:11;;;;;;;8.67;7.80;;;;;;;;;;5024131;28;20383;-48
2022/06/02 07:35:46;;;;;;;8.47;7.57;;;;;;;;;;5022374;28;20205;-49
2022/06/02 07:38:19;;;;;;;7.83;7.10;;;;;;;;;;5006394;28;20706;-48
2022/06/02 07:40:51;;;;;;;9.43;8.47;;;;;;;;;;5022752;28;20223;-49
2022/06/02 07:43:37;;;;;;;8.37;7.57;;;;;;;;;;5006851;28;20630;-49
2022/06/02 07:46:24;;;;;;;9.53;7.70;;;;;;;;;;5004148;28;20288;-48
2022/06/02 07:49:10;;;;;;;8.27;7.53;;;;;;;;;;5023373;28;20535;-49
2022/06/02 07:51:41;;;;;;;8.60;7.70;;;;;;;;;;5007621;28;20524;-49
2022/06/02 07:54:07;;;;;;;7.93;7.23;;;;;;;;;;5006749;28;20174;-50
2022/06/02 07:56:45;;;;;;;7.43;6.73;;;;;;;;;;5009907;28;20460;-49
2022/06/02 07:59:11;;;;;;;7.93;6.57;;;;;;;;;;5022421;28;20216;-49
2022/06/02 08:01:52;;;;;;;7.30;6.70;;;;;;;;;;5016102;28;20190;-50
2022/06/02 08:04:38;;;;;;;7.37;6.67;;;;;;;;;;5020539;28;20186;-50
2022/06/02 08:07:25;;;;;;;7.87;7.13;;;;;;;;;;5026045;28;20204;-50
2022/06/02 08:10:01;;;;;;;9.20;7.27;;;;;;;;;;5004834;28;20201;-50
2022/06/02 08:12:31;;;;;;;7.70;6.97;;;;;;;;;;5025715;28;20240;-49
2022/06/02 08:14:57;;;;;;;7.07;6.37;;;;;;;;;;5019310;28;20387;-49
2022/06/02 08:17:29;;;;;;;7.13;6.53;;;;;;;;;;5024472;28;20182;-50
2022/06/02 08:20:05;;;;;;;9.93;7.07;;;;;;;;;;5007258;28;20193;-50
2022/06/02 08:22:50;;;;;;;7.37;6.57;;;;;;;;;;5008844;28;20199;-49
2022/06/02 08:25:24;;;;;;;6.40;5.80;;;;;;;;;;5007425;28;20188;-49
2022/06/02 08:28:08;;;;;;;7.33;6.47;;;;;;;;;;5024265;28;20214;-51
2022/06/02 08:30:44;;;;;;;6.97;6.00;;;;;;;;;;5021718;28;20527;-50
2022/06/02 08:33:29;;;;;;;6.67;5.97;;;;;;;;;;5019012;28;20277;-50
2022/06/02 08:35:55;;;;;;;6.20;5.60;;;;;;;;;;5017392;28;20186;-50
2022/06/02 08:38:21;;;;;;;7.20;6.40;;;;;;;;;;5005699;28;20308;-50
2022/06/02 08:41:28;;;;;;;6.40;5.60;;;;;;;;;;5022720;28;20185;-49
2022/06/02 08:44:03;;;;;;;6.50;5.63;;;;;;;;;;5015014;28;20235;-51
2022/06/02 08:46:38;;;;;;;5.50;5.00;;;;;;;;;;5002163;28;20237;-50
2022/06/02 08:49:24;;;;;;;6.20;5.27;;;;;;;;;;4992968;28;20635;-50
2022/06/02 08:52:10;;;;;;;6.10;5.57;;;;;;;;;;4974467;28;20299;-50
2022/06/02 08:54:54;;;;;;;5.83;5.33;;;;;;;;;;5010365;28;20197;-51
2022/06/02 08:57:47;;;;;;;6.43;4.90;;;;;;;;;;5007729;28;20676;-51
2022/06/02 09:00:25;;;;;;;5.10;4.60;;;;;;;;;;4974697;28;20182;-50
2022/06/02 09:02:58;;;;;;;5.27;4.77;;;;;;;;;;5029134;28;20698;-50
2022/06/02 09:05:49;;;;;;;4.80;4.27;;;;;;;;;;5005254;28;20186;-51
2022/06/02 09:08:34;;;;;;;7.30;5.20;;;;;;;;;;5015957;28;20188;-50
2022/06/02 09:11:09;;;;;;;5.27;4.77;;;;;;;;;;5023111;28;20202;-50
2022/06/02 09:13:54;;;;;;;5.27;4.77;;;;;;;;;;5026655;28;20249;-50
2022/06/02 09:16:26;;;;;;;4.60;4.00;;;;;;;;;;5005835;28;20204;-50
2022/06/02 09:19:09;;;;;;;4.80;4.40;;;;;;;;;;5007267;28;20616;-50
2022/06/02 09:21:54;;;;;;;5.63;4.43;;;;;;;;;;5012791;28;20182;-50
2022/06/02 09:24:28;;;;;;;4.43;4.13;;;;;;;;;;5006699;28;20175;-50
2022/06/02 09:27:03;;;;;;;4.73;4.33;;;;;;;;;;5010413;28;20614;-49
2022/06/02 09:29:52;;;;;;;4.37;3.93;;;;;;;;;;5024047;28;20918;-50
2022/06/02 09:32:33;;;;;;;4.17;3.77;;;;;;;;;;5017911;28;20178;-50
2022/06/02 09:35:19;;;;;;;4.83;4.33;;;;;;;;;;5003289;28;20191;-50
2022/06/02 09:37:56;;;;;;;4.83;4.13;;;;;;;;;;5010414;28;20263;-49
2022/06/02 09:40:41;;;;;;;3.90;3.60;;;;;;;;;;4984715;28;20239;-49
2022/06/02 09:43:26;;;;;;;5.63;3.70;;;;;;;;;;5023173;28;20250;-50
2022/06/02 09:46:01;;;;;;;4.10;3.70;;;;;;;;;;5017351;28;20204;-50
2022/06/02 09:48:45;;;;;;;3.63;3.33;;;;;;;;;;4999217;28;20259;-50
2022/06/02 09:51:25;;;;;;;5.00;3.60;;;;;;;;;;5023549;28;20251;-51
2022/06/02 09:53:59;;;;;;;4.63;3.97;;;;;;;;;;5005077;28;20457;-51
2022/06/02 09:56:25;;;;;;;3.93;3.63;;;;;;;;;;5015335;28;20654;-51
2022/06/02 09:58:57;;;;;;;4.20;3.50;;;;;;;;;;5008199;28;20182;-51
2022/06/02 10:01:26;;;;;;;4.00;3.70;;;;;;;;;;5006116;28;20189;-50
2022/06/02 10:04:11;;;;;;;5.07;3.73;;;;;;;;;;5018473;28;20195;-50
2022/06/02 10:06:52;;;;;;;3.70;3.40;;;;;;;;;;5016653;28;20306;-50
2022/06/02 10:09:21;;;;;;;3.57;3.10;;;;;;;;;;5013959;28;20525;-51
2022/06/02 10:15:00;;;;;;;4.43;3.23;;;;;;;;;;5006248;28;20525;-51
2022/06/02 10:17:34;;;;;;;4.60;3.43;;;;;;;;;;4998343;28;20226;-52
2022/06/02 10:20:22;;;;;;;3.20;3.00;;;;;;;;;;5005149;28;20173;-51
2022/06/02 10:22:51;;;;;;;3.60;3.30;;;;;;;;;;5010211;28;20177;-53
2022/06/02 10:25:21;;;;;;;3.30;3.00;;;;;;;;;;5009095;28;20552;-52
2022/06/02 10:28:04;;;;;;;3.77;3.47;;;;;;;;;;5006677;28;20289;-52
2022/06/02 10:30:44;;;;;;;4.03;3.00;;;;;;;;;;5004639;28;20235;-52
2022/06/02 10:33:29;;;;;;;3.17;2.87;;;;;;;;;;5003999;28;20182;-52
2022/06/02 10:36:19;;;;;;;8.20;2.80;;;;;;;;;;5003580;28;20170;-51
2022/06/02 10:38:57;;;;;;;3.22;2.92;;;;;;;;;;4989341;28;20415;-52
2022/06/02 10:41:29;;;;;;;3.47;3.10;;;;;;;;;;4983771;28;20178;-51
2022/06/02 10:44:14;;;;;;;3.30;3.10;;;;;;;;;;5006271;28;20289;-52
2022/06/02 10:46:53;;;;;;;3.20;2.97;;;;;;;;;;4983951;28;20205;-52
2022/06/02 10:49:38;;;;;;;3.60;3.30;;;;;;;;;;5000972;28;20178;-52
2022/06/02 10:52:13;;;;;;;5.13;2.90;;;;;;;;;;5003557;28;20174;-53
2022/06/02 10:54:56;;;;;;;4.10;3.20;;;;;;;;;;5003753;28;20178;-52
2022/06/02 10:57:41;;;;;;;2.93;2.70;;;;;;;;;;4988136;28;20186;-53
2022/06/02 11:00:11;;;;;;;3.20;2.90;;;;;;;;;;4986829;28;20183;-53
2022/06/02 11:02:40;;;;;;;7.00;3.13;;;;;;;;;;5002397;28;20665;-52
2022/06/02 11:05:18;;;;;;;3.00;2.80;;;;;;;;;;4985121;28;20181;-52
2022/06/02 11:08:03;;;;;;;3.43;3.17;;;;;;;;;;4987883;28;20285;-51
2022/06/02 11:10:38;;;;;;;3.20;2.97;;;;;;;;;;4982853;28;20203;-54
2022/06/02 11:13:20;;;;;;;2.80;2.60;;;;;;;;;;5007446;28;20648;-53
2022/06/02 11:15:47;;;;;;;2.83;2.40;;;;;;;;;;5006770;28;20193;-52
2022/06/02 11:18:13;;;;;;;2.90;2.57;;;;;;;;;;4988482;28;20178;-53
2022/06/02 11:20:52;;;;;;;3.00;2.40;;;;;;;;;;4986875;28;20525;-53
2022/06/02 11:23:36;;;;;;;2.53;2.33;;;;;;;;;;4994673;28;20229;-51
2022/06/02 11:26:26;;;;;;;3.40;3.10;;;;;;;;;;5019892;28;20204;-53
2022/06/02 11:29:07;;;;;;;2.57;2.40;;;;;;;;;;4981333;28;20194;-51
2022/06/02 11:31:52;;;;;;;2.73;2.53;;;;;;;;;;5004335;28;20219;-53
2022/06/02 11:34:19;;;;;;;2.73;2.50;;;;;;;;;;5025570;28;20699;-53
2022/06/02 11:36:51;;;;;;;3.13;2.93;;;;;;;;;;4990903;28;20190;-49
2022/06/02 11:39:26;;;;;;;3.00;2.80;;;;;;;;;;5020473;28;20190;-51
2022/06/02 11:41:59;;;;;;;3.20;3.00;;;;;;;;;;5006745;28;20190;-51
2022/06/02 11:44:28;;;;;;;2.57;2.37;;;;;;;;;;5004499;28;20873;-50
2022/06/02 11:47:13;;;;;;;3.30;3.00;;;;;;;;;;5007351;28;20636;-51
2022/06/02 11:49:58;;;;;;;2.93;2.73;;;;;;;;;;4986778;28;20198;-52
2022/06/02 11:52:39;;;;;;;3.37;2.80;;;;;;;;;;5007505;28;21091;-51
2022/06/02 11:55:28;;;;;;;2.77;2.57;;;;;;;;;;5005823;28;20177;-51
2022/06/02 11:58:20;;;;;;;3.47;3.23;;;;;;;;;;4986750;28;20198;-51
2022/06/02 12:00:46;;;;;;;3.07;2.60;;;;;;;;;;4987785;28;20175;-52
2022/06/02 12:03:31;;;;;;;4.63;4.33;;;;;;;;;;4988964;28;20193;-51
2022/06/02 12:05:57;;;;;;;3.27;2.97;;;;;;;;;;5016624;28;20179;-51
2022/06/02 12:08:56;;;;;;;2.70;2.50;;;;;;;;;;5006186;28;20571;-51
2022/06/02 12:11:41;;;;;;;2.87;2.67;;;;;;;;;;4945737;28;20233;-51
2022/06/02 12:14:18;;;;;;;2.90;2.60;;;;;;;;;;5007527;28;20212;-51
2022/06/02 12:16:53;;;;;;;3.03;2.83;;;;;;;;;;5007113;28;20177;-51
2022/06/02 12:19:39;;;;;;;2.90;2.70;;;;;;;;;;5007966;28;20204;-51
2022/06/02 12:22:13;;;;;;;3.57;3.30;;;;;;;;;;4986467;28;20641;-52
2022/06/02 12:24:45;;;;;;;2.90;2.70;;;;;;;;;;5026486;28;20712;-50
2022/06/02 12:27:12;;;;;;;2.90;2.70;;;;;;;;;;5029186;28;20213;-57
2022/06/02 12:29:57;;;;;;;2.90;2.70;;;;;;;;;;5004343;28;20196;-51
2022/06/02 12:32:23;;;;;;;2.90;2.70;;;;;;;;;;5018014;28;20529;-52
2022/06/02 12:35:13;;;;;;;3.00;2.80;;;;;;;;;;5029575;28;20176;-51
2022/06/02 12:37:58;;;;;;;3.80;2.90;;;;;;;;;;5018213;28;20428;-51
2022/06/02 12:40:24;;;;;;;2.83;2.63;;;;;;;;;;5028101;28;20229;-52
2022/06/02 12:43:02;;;;;;;3.20;3.00;;;;;;;;;;5011924;28;20185;-53
2022/06/02 12:45:28;;;;;;;3.00;2.80;;;;;;;;;;5019103;28;20267;-52
2022/06/02 12:48:14;;;;;;;2.60;2.40;;;;;;;;;;4998753;28;20558;-51
2022/06/02 12:50:51;;;;;;;2.90;2.70;;;;;;;;;;5004995;28;20219;-52
2022/06/02 12:53:30;;;;;;;3.63;3.33;;;;;;;;;;5030666;28;20165;-52
2022/06/02 12:56:02;;;;;;;3.30;3.00;;;;;;;;;;5029086;28;20536;-55
2022/06/02 12:59:07;;;;;;;3.33;2.73;;;;;;;;;;5029234;28;20483;-51
2022/06/02 13:01:39;;;;;;;3.07;2.87;;;;;;;;;;4913326;29;20596;-51
2022/06/02 13:04:07;;;;;;;2.80;2.60;;;;;;;;;;4914537;29;20197;-52
2022/06/02 13:06:52;;;;;;;3.50;3.20;;;;;;;;;;4981101;28;20723;-52
2022/06/02 13:09:35;;;;;;;3.57;3.27;;;;;;;;;;5027520;28;20457;-52
2022/06/02 13:12:23;;;;;;;3.03;2.83;;;;;;;;;;5018774;28;20217;-52
2022/06/02 13:15:08;;;;;;;3.30;3.10;;;;;;;;;;5028771;28;20166;-52
2022/06/02 13:17:43;;;;;;;3.13;2.93;;;;;;;;;;4993769;28;20243;-51
2022/06/02 13:20:19;;;;;;;2.80;2.60;;;;;;;;;;5028828;28;20258;-52
2022/06/02 13:23:17;;;;;;;2.90;2.70;;;;;;;;;;5030147;28;20158;-51
2022/06/02 13:25:50;;;;;;;3.50;3.30;;;;;;;;;;4977231;28;20186;-53
2022/06/02 13:28:35;;;;;;;5.87;4.20;;;;;;;;;;5028427;28;20175;-52
2022/06/02 13:31:20;;;;;;;4.50;4.20;;;;;;;;;;4997088;28;20247;-52
2022/06/02 13:33:52;;;;;;;4.73;4.33;;;;;;;;;;5003000;28;20201;-53
2022/06/02 13:36:22;;;;;;;4.73;4.03;;;;;;;;;;5023479;28;20608;-53
2022/06/02 13:38:52;;;;;;;4.33;4.03;;;;;;;;;;5020828;28;20541;-53
2022/06/02 13:41:31;;;;;;;4.57;4.20;;;;;;;;;;5003622;28;20275;-52
2022/06/02 13:44:00;;;;;;;3.83;3.53;;;;;;;;;;5028440;28;20169;-52
2022/06/02 13:46:41;;;;;;;5.40;3.80;;;;;;;;;;5027456;28;20244;-52
2022/06/02 13:49:23;;;;;;;3.83;3.43;;;;;;;;;;5026415;28;20193;-52
2022/06/02 13:51:52;;;;;;;4.17;3.87;;;;;;;;;;5009866;28;20197;-52
2022/06/02 13:57:32;;;;;;;4.43;4.10;;;;;;;;;;5014040;28;20240;-52
2022/06/02 14:00:01;;;;;;;6.33;5.77;;;;;;;;;;5000105;28;20186;-52
2022/06/02 14:02:43;;;;;;;3.47;3.17;;;;;;;;;;4998763;28;20252;-53
2022/06/02 14:05:35;;;;;;;3.97;3.70;;;;;;;;;;5015505;28;20190;-51
2022/06/02 14:08:20;;;;;;;4.07;3.60;;;;;;;;;;5026258;28;20202;-50
2022/06/02 14:11:03;;;;;;;3.93;3.50;;;;;;;;;;5021661;28;21966;-53
2022/06/02 14:13:32;;;;;;;4.50;3.57;;;;;;;;;;5018263;28;20226;-51
2022/06/02 14:16:22;;;;;;;3.57;3.37;;;;;;;;;;5013507;28;20737;-52
2022/06/02 14:18:56;;;;;;;3.43;3.23;;;;;;;;;;4997986;28;20641;-53
2022/06/02 14:21:31;;;;;;;4.07;3.67;;;;;;;;;;5010256;28;20273;-53
2022/06/02 14:24:12;;;;;;;3.27;3.00;;;;;;;;;;5025005;28;20190;-52
2022/06/02 14:27:08;;;;;;;4.30;3.20;;;;;;;;;;5028866;28;20291;-52
2022/06/02 14:29:34;;;;;;;3.53;3.13;;;;;;;;;;4940519;28;20193;-52
2022/06/02 14:32:09;;;;;;;3.40;3.20;;;;;;;;;;5027239;28;20236;-52
2022/06/02 14:34:54;;;;;;;3.33;3.03;;;;;;;;;;5009290;28;20189;-52
2022/06/02 14:37:24;;;;;;;3.20;3.00;;;;;;;;;;5026742;28;20178;-52
2022/06/02 14:39:50;;;;;;;4.63;3.13;;;;;;;;;;5002193;28;20190;-53
2022/06/02 14:43:03;;;;;;;3.17;2.97;;;;;;;;;;5004306;28;20202;-52
2022/06/02 14:45:17;;;;;;;3.27;3.00;;;;;;;;;;5020142;28;20559;-52
2022/06/02 14:47:53;;;;;;;3.20;3.00;;;;;;;;;;5007879;28;20268;-53
2022/06/02 14:50:27;;;;;;;3.00;2.80;;;;;;;;;;5005500;28;20192;-52
2022/06/02 14:53:15;;;;;;;3.37;3.07;;;;;;;;;;5021898;28;20184;-52
2022/06/02 14:55:50;;;;;;;3.57;2.60;;;;;;;;;;5005230;28;20682;-52
2022/06/02 14:58:26;;;;;;;3.53;3.23;;;;;;;;;;4991721;28;20182;-53
2022/06/02 15:01:04;;;;;;;5.43;2.90;;;;;;;;;;5017272;28;20190;-53
2022/06/02 15:03:52;;;;;;;4.97;2.83;;;;;;;;;;5021037;28;20255;-53
2022/06/02 15:06:27;;;;;;;2.87;2.67;;;;;;;;;;5006062;28;20221;-54
2022/06/02 15:09:00;;;;;;;3.17;2.87;;;;;;;;;;5015608;28;20182;-51
2022/06/02 15:11:45;;;;;;;2.97;2.77;;;;;;;;;;5005666;28;20204;-53
2022/06/02 15:14:14;;;;;;;2.90;2.70;;;;;;;;;;5006994;28;20178;-54
2022/06/02 15:16:59;;;;;;;3.33;3.03;;;;;;;;;;5003735;28;20199;-52
2022/06/02 15:19:46;;;;;;;3.03;2.70;;;;;;;;;;5007708;28;20529;-53
2022/06/02 15:22:31;;;;;;;3.07;2.87;;;;;;;;;;5017321;28;20515;-52
2022/06/02 15:25:03;;;;;;;2.83;2.63;;;;;;;;;;5024474;28;20736;-52
2022/06/02 15:27:39;;;;;;;4.23;3.30;;;;;;;;;;5007907;28;20202;-52
2022/06/02 15:30:17;;;;;;;3.07;2.33;;;;;;;;;;5014109;28;20181;-52
2022/06/02 15:33:02;;;;;;;2.73;2.53;;;;;;;;;;5026177;28;20425;-52
2022/06/02 15:35:40;;;;;;;2.97;2.77;;;;;;;;;;5017183;28;20182;-52
2022/06/02 15:38:09;;;;;;;3.53;2.67;;;;;;;;;;4989985;28;20645;-52
2022/06/02 15:40:56;;;;;;;3.50;3.00;;;;;;;;;;5009837;28;20178;-52
2022/06/02 15:43:26;;;;;;;2.40;2.20;;;;;;;;;;5008064;28;20604;-53
2022/06/02 15:45:58;;;;;;;3.10;2.90;;;;;;;;;;4996813;28;20217;-52
2022/06/02 15:48:46;;;;;;;2.73;2.50;;;;;;;;;;5002030;28;20281;-53
2022/06/02 15:51:23;;;;;;;2.60;2.40;;;;;;;;;;5001391;28;20213;-53
2022/06/02 15:53:52;;;;;;;2.63;2.43;;;;;;;;;;5004099;28;20193;-53
2022/06/02 15:56:37;;;;;;;2.70;2.50;;;;;;;;;;5021735;28;20220;-54
2022/06/02 15:59:24;;;;;;;2.80;2.60;;;;;;;;;;5005130;28;20521;-53
2022/06/02 16:02:26;;;;;;;3.37;3.17;;;;;;;;;;5022498;28;20247;-52
2022/06/02 16:04:55;;;;;;;3.63;2.70;;;;;;;;;;4943189;28;20199;-53